Tuckerman, Arkansas
Current Conditions -  °F | °C
As of 2:56 PM on Friday 19 Dec 2014 (Local Time) from KM19 Reporting Station
Broken Clouds Broken Clouds  
Wind Chill: 34°   Ceiling: 9000
Heat Index: 41°   Visibility: 10mi
Dew Point: 36°   Wind: 13mph
Humidity: 82%   Direction: 30°NNE
Pressure: 30.24"   Gusts: NA
Location:  35.73°N, 91.2°W
Report Text: KM19 192056Z AUTO 03011KT 10SM BKN090 BKN110 05/02 A3024 RMK AO2 55026 T00500022 SLP240
Loading
Personal Weather Stations






























Interactive Weather Map New forecast layout! Learn more

10-Day Weather Forecast

Advertisements
Track Severe Weather on mobile